sensor_id;sensor_type;location;lat;lon;timestamp;temperature;humidity
14771;DHT22;7477;45.222;5.688;2023-05-06T00:00:24;18.50;89.50
14771;DHT22;7477;45.222;5.688;2023-05-06T00:03:44;18.40;89.30
14771;DHT22;7477;45.222;5.688;2023-05-06T00:07:03;18.40;89.90
14771;DHT22;7477;45.222;5.688;2023-05-06T00:10:22;18.40;89.80
14771;DHT22;7477;45.222;5.688;2023-05-06T00:13:42;18.30;90.10
14771;DHT22;7477;45.222;5.688;2023-05-06T00:17:01;18.20;90.50
14771;DHT22;7477;45.222;5.688;2023-05-06T00:20:20;18.00;90.70
14771;DHT22;7477;45.222;5.688;2023-05-06T00:23:40;17.90;91.10
14771;DHT22;7477;45.222;5.688;2023-05-06T00:26:59;17.70;91.30
14771;DHT22;7477;45.222;5.688;2023-05-06T00:30:19;17.70;91.50
14771;DHT22;7477;45.222;5.688;2023-05-06T00:33:38;17.70;91.60
14771;DHT22;7477;45.222;5.688;2023-05-06T00:36:58;17.50;91.90
14771;DHT22;7477;45.222;5.688;2023-05-06T00:40:17;17.40;92.10
14771;DHT22;7477;45.222;5.688;2023-05-06T00:43:37;17.40;92.10
14771;DHT22;7477;45.222;5.688;2023-05-06T00:46:57;17.40;92.20
14771;DHT22;7477;45.222;5.688;2023-05-06T00:50:18;17.30;92.30
14771;DHT22;7477;45.222;5.688;2023-05-06T00:53:37;17.30;92.40
14771;DHT22;7477;45.222;5.688;2023-05-06T00:56:57;17.30;92.50
14771;DHT22;7477;45.222;5.688;2023-05-06T01:00:17;17.20;92.80
14771;DHT22;7477;45.222;5.688;2023-05-06T01:03:37;17.10;93.00
14771;DHT22;7477;45.222;5.688;2023-05-06T01:07:07;17.10;93.10
14771;DHT22;7477;45.222;5.688;2023-05-06T01:10:51;17.10;93.20
14771;DHT22;7477;45.222;5.688;2023-05-06T01:14:24;17.00;93.30
14771;DHT22;7477;45.222;5.688;2023-05-06T01:17:45;16.90;93.50
14771;DHT22;7477;45.222;5.688;2023-05-06T01:21:06;16.80;93.80
14771;DHT22;7477;45.222;5.688;2023-05-06T01:24:43;16.80;93.80
14771;DHT22;7477;45.222;5.688;2023-05-06T01:28:03;16.70;93.90
14771;DHT22;7477;45.222;5.688;2023-05-06T01:31:29;16.80;94.00
14771;DHT22;7477;45.222;5.688;2023-05-06T01:38:41;16.70;94.40
14771;DHT22;7477;45.222;5.688;2023-05-06T01:42:01;16.60;94.50
14771;DHT22;7477;45.222;5.688;2023-05-06T01:45:24;16.60;94.90
14771;DHT22;7477;45.222;5.688;2023-05-06T01:48:48;16.40;95.00
14771;DHT22;7477;45.222;5.688;2023-05-06T01:52:08;16.40;95.10
14771;DHT22;7477;45.222;5.688;2023-05-06T01:55:27;16.40;95.40
14771;DHT22;7477;45.222;5.688;2023-05-06T01:58:46;16.30;95.50
14771;DHT22;7477;45.222;5.688;2023-05-06T02:02:05;16.30;95.80
14771;DHT22;7477;45.222;5.688;2023-05-06T02:05:26;16.20;95.80
14771;DHT22;7477;45.222;5.688;2023-05-06T02:08:45;16.20;96.10
14771;DHT22;7477;45.222;5.688;2023-05-06T02:12:04;16.10;96.40
14771;DHT22;7477;45.222;5.688;2023-05-06T02:15:23;16.10;96.50
14771;DHT22;7477;45.222;5.688;2023-05-06T02:18:42;16.00;96.60
14771;DHT22;7477;45.222;5.688;2023-05-06T02:22:02;16.00;96.70
14771;DHT22;7477;45.222;5.688;2023-05-06T02:25:21;16.00;97.00
14771;DHT22;7477;45.222;5.688;2023-05-06T02:28:41;15.90;97.00
14771;DHT22;7477;45.222;5.688;2023-05-06T02:32:00;15.80;97.40
14771;DHT22;7477;45.222;5.688;2023-05-06T02:35:19;15.90;97.40
14771;DHT22;7477;45.222;5.688;2023-05-06T02:38:39;15.80;97.50
14771;DHT22;7477;45.222;5.688;2023-05-06T02:41:58;15.70;97.80
14771;DHT22;7477;45.222;5.688;2023-05-06T02:45:17;15.70;97.90
14771;DHT22;7477;45.222;5.688;2023-05-06T02:48:36;15.70;98.10
14771;DHT22;7477;45.222;5.688;2023-05-06T02:51:55;15.70;98.20
14771;DHT22;7477;45.222;5.688;2023-05-06T02:55:15;15.70;98.50
14771;DHT22;7477;45.222;5.688;2023-05-06T02:58:34;15.60;98.60
14771;DHT22;7477;45.222;5.688;2023-05-06T03:01:53;15.50;98.60
14771;DHT22;7477;45.222;5.688;2023-05-06T03:05:12;15.50;98.80
14771;DHT22;7477;45.222;5.688;2023-05-06T03:08:31;15.50;98.90
14771;DHT22;7477;45.222;5.688;2023-05-06T03:11:50;15.50;99.00
14771;DHT22;7477;45.222;5.688;2023-05-06T03:15:10;15.40;99.10
14771;DHT22;7477;45.222;5.688;2023-05-06T03:18:29;15.40;99.20
14771;DHT22;7477;45.222;5.688;2023-05-06T03:21:48;15.30;99.50
14771;DHT22;7477;45.222;5.688;2023-05-06T03:25:08;15.30;99.40
14771;DHT22;7477;45.222;5.688;2023-05-06T03:28:27;15.40;99.50
14771;DHT22;7477;45.222;5.688;2023-05-06T03:31:48;15.30;99.80
14771;DHT22;7477;45.222;5.688;2023-05-06T03:35:09;15.30;99.90
14771;DHT22;7477;45.222;5.688;2023-05-06T03:38:29;15.30;99.90
14771;DHT22;7477;45.222;5.688;2023-05-06T03:41:48;15.30;99.90
14771;DHT22;7477;45.222;5.688;2023-05-06T03:45:08;15.20;99.90
14771;DHT22;7477;45.222;5.688;2023-05-06T03:48:28;15.20;99.90
14771;DHT22;7477;45.222;5.688;2023-05-06T03:51:47;15.20;99.90
14771;DHT22;7477;45.222;5.688;2023-05-06T03:55:07;15.10;99.90
14771;DHT22;7477;45.222;5.688;2023-05-06T03:58:27;15.00;99.90
14771;DHT22;7477;45.222;5.688;2023-05-06T04:01:46;15.00;99.90
14771;DHT22;7477;45.222;5.688;2023-05-06T04:05:05;15.00;99.90
14771;DHT22;7477;45.222;5.688;2023-05-06T04:08:25;14.90;99.90
14771;DHT22;7477;45.222;5.688;2023-05-06T04:11:45;14.90;99.90
14771;DHT22;7477;45.222;5.688;2023-05-06T04:15:05;14.90;99.90
14771;DHT22;7477;45.222;5.688;2023-05-06T04:18:25;14.90;99.90
14771;DHT22;7477;45.222;5.688;2023-05-06T04:21:44;14.90;99.90
14771;DHT22;7477;45.222;5.688;2023-05-06T04:25:04;15.00;99.90
14771;DHT22;7477;45.222;5.688;2023-05-06T04:28:23;15.00;99.90
14771;DHT22;7477;45.222;5.688;2023-05-06T04:31:43;15.00;99.90
14771;DHT22;7477;45.222;5.688;2023-05-06T04:35:02;15.00;99.90
14771;DHT22;7477;45.222;5.688;2023-05-06T04:38:22;14.90;99.90
14771;DHT22;7477;45.222;5.688;2023-05-06T04:41:43;14.90;99.90
14771;DHT22;7477;45.222;5.688;2023-05-06T04:45:03;14.90;99.90
14771;DHT22;7477;45.222;5.688;2023-05-06T04:48:23;14.90;99.90
14771;DHT22;7477;45.222;5.688;2023-05-06T04:51:42;15.20;99.90
14771;DHT22;7477;45.222;5.688;2023-05-06T04:55:02;15.60;99.90
14771;DHT22;7477;45.222;5.688;2023-05-06T04:58:21;15.30;99.90
14771;DHT22;7477;45.222;5.688;2023-05-06T05:01:41;15.30;99.90
14771;DHT22;7477;45.222;5.688;2023-05-06T05:05:00;15.30;99.90
14771;DHT22;7477;45.222;5.688;2023-05-06T05:08:19;15.20;99.90
14771;DHT22;7477;45.222;5.688;2023-05-06T05:11:38;15.10;99.90
14771;DHT22;7477;45.222;5.688;2023-05-06T05:14:57;15.10;99.90
14771;DHT22;7477;45.222;5.688;2023-05-06T05:18:16;15.10;99.90
14771;DHT22;7477;45.222;5.688;2023-05-06T05:21:35;15.00;99.90
14771;DHT22;7477;45.222;5.688;2023-05-06T05:24:54;15.00;99.90
14771;DHT22;7477;45.222;5.688;2023-05-06T05:28:14;15.10;99.90
14771;DHT22;7477;45.222;5.688;2023-05-06T05:31:33;15.00;99.90
14771;DHT22;7477;45.222;5.688;2023-05-06T05:34:52;15.00;99.90
14771;DHT22;7477;45.222;5.688;2023-05-06T05:38:11;15.00;99.90
14771;DHT22;7477;45.222;5.688;2023-05-06T05:41:34;15.00;99.90
14771;DHT22;7477;45.222;5.688;2023-05-06T05:44:54;15.20;99.90
14771;DHT22;7477;45.222;5.688;2023-05-06T05:48:13;15.30;99.90
14771;DHT22;7477;45.222;5.688;2023-05-06T05:51:33;15.30;99.90
14771;DHT22;7477;45.222;5.688;2023-05-06T05:54:52;15.30;99.90
14771;DHT22;7477;45.222;5.688;2023-05-06T05:58:11;15.30;99.90
14771;DHT22;7477;45.222;5.688;2023-05-06T06:01:31;15.30;99.90
14771;DHT22;7477;45.222;5.688;2023-05-06T06:04:51;15.30;99.90
14771;DHT22;7477;45.222;5.688;2023-05-06T06:08:10;15.30;99.90
14771;DHT22;7477;45.222;5.688;2023-05-06T06:11:29;15.40;99.90
14771;DHT22;7477;45.222;5.688;2023-05-06T06:14:49;15.50;99.90
14771;DHT22;7477;45.222;5.688;2023-05-06T06:18:08;15.50;99.90
14771;DHT22;7477;45.222;5.688;2023-05-06T06:21:27;15.40;99.90
14771;DHT22;7477;45.222;5.688;2023-05-06T06:24:47;15.30;99.90
14771;DHT22;7477;45.222;5.688;2023-05-06T06:28:06;15.30;99.90
14771;DHT22;7477;45.222;5.688;2023-05-06T06:31:25;15.30;99.90
14771;DHT22;7477;45.222;5.688;2023-05-06T06:34:44;15.40;99.90
14771;DHT22;7477;45.222;5.688;2023-05-06T06:38:03;15.50;99.90
14771;DHT22;7477;45.222;5.688;2023-05-06T06:41:22;15.60;99.90
14771;DHT22;7477;45.222;5.688;2023-05-06T06:44:41;15.70;99.90
14771;DHT22;7477;45.222;5.688;2023-05-06T06:48:00;15.70;99.90
14771;DHT22;7477;45.222;5.688;2023-05-06T06:51:20;15.70;99.90
14771;DHT22;7477;45.222;5.688;2023-05-06T06:54:39;15.80;99.90
14771;DHT22;7477;45.222;5.688;2023-05-06T06:57:58;15.90;99.90
14771;DHT22;7477;45.222;5.688;2023-05-06T07:01:17;15.90;99.90
14771;DHT22;7477;45.222;5.688;2023-05-06T07:04:36;15.90;99.90
14771;DHT22;7477;45.222;5.688;2023-05-06T07:07:56;15.90;99.90
14771;DHT22;7477;45.222;5.688;2023-05-06T07:11:15;16.00;99.90
14771;DHT22;7477;45.222;5.688;2023-05-06T07:14:34;16.20;99.90
14771;DHT22;7477;45.222;5.688;2023-05-06T07:17:53;17.00;99.90
14771;DHT22;7477;45.222;5.688;2023-05-06T07:21:12;18.40;99.90
14771;DHT22;7477;45.222;5.688;2023-05-06T07:24:31;18.80;99.80
14771;DHT22;7477;45.222;5.688;2023-05-06T07:27:51;18.10;99.40
14771;DHT22;7477;45.222;5.688;2023-05-06T07:31:10;17.40;99.70
14771;DHT22;7477;45.222;5.688;2023-05-06T07:34:29;17.20;99.90
14771;DHT22;7477;45.222;5.688;2023-05-06T07:37:49;17.10;99.90
14771;DHT22;7477;45.222;5.688;2023-05-06T07:41:09;17.10;99.90
14771;DHT22;7477;45.222;5.688;2023-05-06T07:44:28;17.00;99.90
14771;DHT22;7477;45.222;5.688;2023-05-06T07:47:47;17.00;99.90
14771;DHT22;7477;45.222;5.688;2023-05-06T07:51:07;17.80;99.90
14771;DHT22;7477;45.222;5.688;2023-05-06T07:54:26;17.50;99.90
14771;DHT22;7477;45.222;5.688;2023-05-06T07:57:45;17.30;99.90
14771;DHT22;7477;45.222;5.688;2023-05-06T08:01:04;17.30;99.90
14771;DHT22;7477;45.222;5.688;2023-05-06T08:04:24;17.30;99.90
14771;DHT22;7477;45.222;5.688;2023-05-06T08:07:43;17.50;99.90
14771;DHT22;7477;45.222;5.688;2023-05-06T08:11:03;17.40;99.90
14771;DHT22;7477;45.222;5.688;2023-05-06T08:14:23;17.40;99.90
14771;DHT22;7477;45.222;5.688;2023-05-06T08:17:44;17.40;99.90
14771;DHT22;7477;45.222;5.688;2023-05-06T08:21:03;17.40;99.90
14771;DHT22;7477;45.222;5.688;2023-05-06T08:24:23;17.40;99.90
14771;DHT22;7477;45.222;5.688;2023-05-06T08:27:43;17.40;99.90
14771;DHT22;7477;45.222;5.688;2023-05-06T08:31:03;17.40;99.90
14771;DHT22;7477;45.222;5.688;2023-05-06T08:34:22;17.40;99.90
14771;DHT22;7477;45.222;5.688;2023-05-06T08:37:41;17.60;99.90
14771;DHT22;7477;45.222;5.688;2023-05-06T08:41:06;17.60;99.90
14771;DHT22;7477;45.222;5.688;2023-05-06T08:44:26;17.60;99.90
14771;DHT22;7477;45.222;5.688;2023-05-06T08:47:46;17.60;99.90
14771;DHT22;7477;45.222;5.688;2023-05-06T08:51:07;17.60;99.90
14771;DHT22;7477;45.222;5.688;2023-05-06T08:54:26;17.50;99.90
14771;DHT22;7477;45.222;5.688;2023-05-06T08:57:47;17.60;99.90
14771;DHT22;7477;45.222;5.688;2023-05-06T09:01:07;17.70;99.90
14771;DHT22;7477;45.222;5.688;2023-05-06T09:04:27;17.70;99.90
14771;DHT22;7477;45.222;5.688;2023-05-06T09:07:46;17.80;99.90
14771;DHT22;7477;45.222;5.688;2023-05-06T09:11:26;17.80;99.90
14771;DHT22;7477;45.222;5.688;2023-05-06T09:14:49;17.70;99.90
14771;DHT22;7477;45.222;5.688;2023-05-06T09:18:10;17.70;99.90
14771;DHT22;7477;45.222;5.688;2023-05-06T09:21:37;17.80;99.90
14771;DHT22;7477;45.222;5.688;2023-05-06T09:24:57;17.90;99.90
14771;DHT22;7477;45.222;5.688;2023-05-06T09:28:16;17.80;99.90
14771;DHT22;7477;45.222;5.688;2023-05-06T09:31:41;18.00;99.90
14771;DHT22;7477;45.222;5.688;2023-05-06T09:35:01;18.00;99.90
14771;DHT22;7477;45.222;5.688;2023-05-06T09:38:20;18.20;99.90
14771;DHT22;7477;45.222;5.688;2023-05-06T09:41:39;18.30;99.90
14771;DHT22;7477;45.222;5.688;2023-05-06T09:45:00;18.30;99.90
14771;DHT22;7477;45.222;5.688;2023-05-06T09:48:21;18.20;99.90
14771;DHT22;7477;45.222;5.688;2023-05-06T09:51:43;18.30;99.90
14771;DHT22;7477;45.222;5.688;2023-05-06T09:55:06;18.30;99.90
14771;DHT22;7477;45.222;5.688;2023-05-06T09:58:27;18.40;99.90
14771;DHT22;7477;45.222;5.688;2023-05-06T10:01:47;18.30;99.90
14771;DHT22;7477;45.222;5.688;2023-05-06T10:05:11;18.40;99.90
14771;DHT22;7477;45.222;5.688;2023-05-06T10:08:32;18.40;99.90
14771;DHT22;7477;45.222;5.688;2023-05-06T10:11:53;18.50;99.80
14771;DHT22;7477;45.222;5.688;2023-05-06T10:15:13;18.50;99.40
14771;DHT22;7477;45.222;5.688;2023-05-06T10:18:34;18.60;99.70
14771;DHT22;7477;45.222;5.688;2023-05-06T10:22:10;19.00;98.50
14771;DHT22;7477;45.222;5.688;2023-05-06T10:25:38;18.80;99.00
14771;DHT22;7477;45.222;5.688;2023-05-06T10:29:00;18.80;98.70
14771;DHT22;7477;45.222;5.688;2023-05-06T10:32:24;19.10;98.40
14771;DHT22;7477;45.222;5.688;2023-05-06T10:36:06;19.30;98.10
14771;DHT22;7477;45.222;5.688;2023-05-06T10:39:29;19.50;97.90
14771;DHT22;7477;45.222;5.688;2023-05-06T10:42:49;19.60;97.60
14771;DHT22;7477;45.222;5.688;2023-05-06T10:46:16;19.50;97.80
14771;DHT22;7477;45.222;5.688;2023-05-06T10:49:36;19.70;98.10
14771;DHT22;7477;45.222;5.688;2023-05-06T10:52:57;19.80;97.70
14771;DHT22;7477;45.222;5.688;2023-05-06T10:56:19;19.70;97.80
14771;DHT22;7477;45.222;5.688;2023-05-06T10:59:44;19.40;98.20
14771;DHT22;7477;45.222;5.688;2023-05-06T11:03:06;19.90;97.50
14771;DHT22;7477;45.222;5.688;2023-05-06T11:09:57;19.90;98.50
14771;DHT22;7477;45.222;5.688;2023-05-06T11:13:27;19.90;98.20
14771;DHT22;7477;45.222;5.688;2023-05-06T11:16:48;20.10;98.00
14771;DHT22;7477;45.222;5.688;2023-05-06T11:20:21;20.10;98.20
14771;DHT22;7477;45.222;5.688;2023-05-06T11:27:01;20.10;98.40
14771;DHT22;7477;45.222;5.688;2023-05-06T11:30:20;20.00;98.40
14771;DHT22;7477;45.222;5.688;2023-05-06T11:33:48;20.30;97.90
14771;DHT22;7477;45.222;5.688;2023-05-06T11:37:09;20.30;98.00
14771;DHT22;7477;45.222;5.688;2023-05-06T11:40:29;20.50;97.80
14771;DHT22;7477;45.222;5.688;2023-05-06T11:43:50;20.40;97.80
14771;DHT22;7477;45.222;5.688;2023-05-06T11:47:09;20.10;98.10
14771;DHT22;7477;45.222;5.688;2023-05-06T11:50:29;20.20;97.80
14771;DHT22;7477;45.222;5.688;2023-05-06T11:53:48;20.20;97.90
14771;DHT22;7477;45.222;5.688;2023-05-06T11:57:08;20.30;96.90
14771;DHT22;7477;45.222;5.688;2023-05-06T12:00:27;20.40;97.10
14771;DHT22;7477;45.222;5.688;2023-05-06T12:03:47;20.90;96.00
14771;DHT22;7477;45.222;5.688;2023-05-06T12:07:07;20.50;96.60
14771;DHT22;7477;45.222;5.688;2023-05-06T12:10:26;20.70;96.50
14771;DHT22;7477;45.222;5.688;2023-05-06T12:13:46;20.90;96.10
14771;DHT22;7477;45.222;5.688;2023-05-06T12:17:05;21.10;95.70
14771;DHT22;7477;45.222;5.688;2023-05-06T12:20:25;21.10;95.60
14771;DHT22;7477;45.222;5.688;2023-05-06T12:27:11;21.40;95.40
14771;DHT22;7477;45.222;5.688;2023-05-06T12:30:34;20.90;96.20
14771;DHT22;7477;45.222;5.688;2023-05-06T12:33:53;21.10;95.70
14771;DHT22;7477;45.222;5.688;2023-05-06T12:37:31;20.70;96.40
14771;DHT22;7477;45.222;5.688;2023-05-06T12:40:54;20.60;96.70
14771;DHT22;7477;45.222;5.688;2023-05-06T12:44:36;21.00;96.30
14771;DHT22;7477;45.222;5.688;2023-05-06T12:48:00;21.10;96.10
14771;DHT22;7477;45.222;5.688;2023-05-06T12:51:23;21.70;95.20
14771;DHT22;7477;45.222;5.688;2023-05-06T12:54:43;21.20;95.80
14771;DHT22;7477;45.222;5.688;2023-05-06T12:58:02;21.30;95.60
14771;DHT22;7477;45.222;5.688;2023-05-06T13:01:22;20.90;96.50
14771;DHT22;7477;45.222;5.688;2023-05-06T13:04:41;21.70;95.90
14771;DHT22;7477;45.222;5.688;2023-05-06T13:08:01;21.30;96.10
14771;DHT22;7477;45.222;5.688;2023-05-06T13:11:20;21.60;95.90
14771;DHT22;7477;45.222;5.688;2023-05-06T13:14:40;21.70;95.30
14771;DHT22;7477;45.222;5.688;2023-05-06T13:18:00;21.70;95.70
14771;DHT22;7477;45.222;5.688;2023-05-06T13:21:19;22.20;95.00
14771;DHT22;7477;45.222;5.688;2023-05-06T13:24:38;22.30;95.30
14771;DHT22;7477;45.222;5.688;2023-05-06T13:27:57;22.20;95.10
14771;DHT22;7477;45.222;5.688;2023-05-06T13:31:16;22.10;95.10
14771;DHT22;7477;45.222;5.688;2023-05-06T13:34:35;22.20;95.40
14771;DHT22;7477;45.222;5.688;2023-05-06T13:37:55;22.40;95.30
14771;DHT22;7477;45.222;5.688;2023-05-06T13:41:14;22.50;94.90
14771;DHT22;7477;45.222;5.688;2023-05-06T13:44:34;22.50;95.50
14771;DHT22;7477;45.222;5.688;2023-05-06T13:47:53;22.30;95.40
14771;DHT22;7477;45.222;5.688;2023-05-06T13:51:13;22.60;95.60
14771;DHT22;7477;45.222;5.688;2023-05-06T13:54:32;23.00;94.80
14771;DHT22;7477;45.222;5.688;2023-05-06T13:57:51;22.80;95.00
14771;DHT22;7477;45.222;5.688;2023-05-06T14:01:10;23.40;94.00
14771;DHT22;7477;45.222;5.688;2023-05-06T14:04:29;23.40;94.00
14771;DHT22;7477;45.222;5.688;2023-05-06T14:07:48;22.90;94.80
14771;DHT22;7477;45.222;5.688;2023-05-06T14:11:07;23.70;93.70
14771;DHT22;7477;45.222;5.688;2023-05-06T14:14:29;23.70;93.30
14771;DHT22;7477;45.222;5.688;2023-05-06T14:17:49;23.80;93.40
14771;DHT22;7477;45.222;5.688;2023-05-06T14:21:08;23.90;93.20
14771;DHT22;7477;45.222;5.688;2023-05-06T14:24:27;23.40;93.70
14771;DHT22;7477;45.222;5.688;2023-05-06T14:27:47;23.40;93.70
14771;DHT22;7477;45.222;5.688;2023-05-06T14:31:06;24.30;93.00
14771;DHT22;7477;45.222;5.688;2023-05-06T14:34:25;24.10;93.00
14771;DHT22;7477;45.222;5.688;2023-05-06T14:37:45;23.80;93.30
14771;DHT22;7477;45.222;5.688;2023-05-06T14:41:05;24.40;91.80
14771;DHT22;7477;45.222;5.688;2023-05-06T14:44:24;23.70;93.60
14771;DHT22;7477;45.222;5.688;2023-05-06T14:47:43;23.70;93.20
14771;DHT22;7477;45.222;5.688;2023-05-06T14:51:02;24.40;92.50
14771;DHT22;7477;45.222;5.688;2023-05-06T14:54:21;24.90;91.50
14771;DHT22;7477;45.222;5.688;2023-05-06T14:57:40;24.90;90.90
14771;DHT22;7477;45.222;5.688;2023-05-06T15:01:00;25.10;89.50
14771;DHT22;7477;45.222;5.688;2023-05-06T15:04:19;25.20;90.60
14771;DHT22;7477;45.222;5.688;2023-05-06T15:07:39;25.00;90.90
14771;DHT22;7477;45.222;5.688;2023-05-06T15:10:58;24.60;92.10
14771;DHT22;7477;45.222;5.688;2023-05-06T15:14:17;24.50;92.20
14771;DHT22;7477;45.222;5.688;2023-05-06T15:17:36;24.70;91.60
14771;DHT22;7477;45.222;5.688;2023-05-06T15:20:57;25.40;90.70
14771;DHT22;7477;45.222;5.688;2023-05-06T15:24:19;25.40;90.10
14771;DHT22;7477;45.222;5.688;2023-05-06T15:27:38;25.10;91.20
14771;DHT22;7477;45.222;5.688;2023-05-06T15:30:57;25.30;89.70
14771;DHT22;7477;45.222;5.688;2023-05-06T15:34:17;25.30;90.20
14771;DHT22;7477;45.222;5.688;2023-05-06T15:37:38;24.80;91.90
14771;DHT22;7477;45.222;5.688;2023-05-06T15:40:57;25.30;91.30
14771;DHT22;7477;45.222;5.688;2023-05-06T15:44:17;25.80;89.70
14771;DHT22;7477;45.222;5.688;2023-05-06T15:47:37;25.00;91.10
14771;DHT22;7477;45.222;5.688;2023-05-06T15:50:56;25.50;90.30
14771;DHT22;7477;45.222;5.688;2023-05-06T15:54:15;25.50;90.10
14771;DHT22;7477;45.222;5.688;2023-05-06T15:57:37;25.40;90.80
14771;DHT22;7477;45.222;5.688;2023-05-06T16:00:56;25.30;90.40
14771;DHT22;7477;45.222;5.688;2023-05-06T16:04:15;25.40;90.50
14771;DHT22;7477;45.222;5.688;2023-05-06T16:07:35;25.80;89.20
14771;DHT22;7477;45.222;5.688;2023-05-06T16:10:54;25.40;90.50
14771;DHT22;7477;45.222;5.688;2023-05-06T16:14:13;25.50;90.10
14771;DHT22;7477;45.222;5.688;2023-05-06T16:17:32;25.80;88.80
14771;DHT22;7477;45.222;5.688;2023-05-06T16:20:55;25.80;88.50
14771;DHT22;7477;45.222;5.688;2023-05-06T16:24:14;25.60;89.40
14771;DHT22;7477;45.222;5.688;2023-05-06T16:27:34;25.80;88.70
14771;DHT22;7477;45.222;5.688;2023-05-06T16:30:53;25.70;89.50
14771;DHT22;7477;45.222;5.688;2023-05-06T16:34:13;25.70;87.10
14771;DHT22;7477;45.222;5.688;2023-05-06T16:37:33;25.50;88.10
14771;DHT22;7477;45.222;5.688;2023-05-06T16:40:52;25.40;88.90
14771;DHT22;7477;45.222;5.688;2023-05-06T16:44:11;25.10;89.60
14771;DHT22;7477;45.222;5.688;2023-05-06T16:47:30;25.30;90.00
14771;DHT22;7477;45.222;5.688;2023-05-06T16:50:50;25.20;89.10
14771;DHT22;7477;45.222;5.688;2023-05-06T16:54:09;25.40;89.60
14771;DHT22;7477;45.222;5.688;2023-05-06T16:57:28;25.00;90.00
14771;DHT22;7477;45.222;5.688;2023-05-06T17:00:47;25.00;89.90
14771;DHT22;7477;45.222;5.688;2023-05-06T17:04:07;25.10;88.50
14771;DHT22;7477;45.222;5.688;2023-05-06T17:07:26;24.90;89.00
14771;DHT22;7477;45.222;5.688;2023-05-06T17:10:45;24.80;87.80
14771;DHT22;7477;45.222;5.688;2023-05-06T17:14:04;24.50;89.50
14771;DHT22;7477;45.222;5.688;2023-05-06T17:17:23;24.80;88.10
14771;DHT22;7477;45.222;5.688;2023-05-06T17:20:46;24.40;90.20
14771;DHT22;7477;45.222;5.688;2023-05-06T17:24:05;24.50;89.50
14771;DHT22;7477;45.222;5.688;2023-05-06T17:27:25;24.50;90.50
14771;DHT22;7477;45.222;5.688;2023-05-06T17:30:43;24.20;90.60
14771;DHT22;7477;45.222;5.688;2023-05-06T17:34:03;24.30;88.60
14771;DHT22;7477;45.222;5.688;2023-05-06T17:37:22;23.90;90.40
14771;DHT22;7477;45.222;5.688;2023-05-06T17:40:42;24.20;88.60
14771;DHT22;7477;45.222;5.688;2023-05-06T17:44:01;24.00;90.10
14771;DHT22;7477;45.222;5.688;2023-05-06T17:47:21;23.90;92.10
14771;DHT22;7477;45.222;5.688;2023-05-06T17:50:43;23.90;92.30
14771;DHT22;7477;45.222;5.688;2023-05-06T17:54:02;23.70;90.90
14771;DHT22;7477;45.222;5.688;2023-05-06T17:57:21;23.80;91.20
14771;DHT22;7477;45.222;5.688;2023-05-06T18:00:40;23.80;90.00
14771;DHT22;7477;45.222;5.688;2023-05-06T18:04:00;23.80;91.90
14771;DHT22;7477;45.222;5.688;2023-05-06T18:07:20;23.70;90.90
14771;DHT22;7477;45.222;5.688;2023-05-06T18:10:39;23.60;91.40
14771;DHT22;7477;45.222;5.688;2023-05-06T18:13:58;23.60;91.90
14771;DHT22;7477;45.222;5.688;2023-05-06T18:17:17;23.60;92.00
14771;DHT22;7477;45.222;5.688;2023-05-06T18:20:36;23.50;93.20
14771;DHT22;7477;45.222;5.688;2023-05-06T18:23:55;23.60;91.10
14771;DHT22;7477;45.222;5.688;2023-05-06T18:27:15;23.50;92.50
14771;DHT22;7477;45.222;5.688;2023-05-06T18:30:34;23.40;92.80
14771;DHT22;7477;45.222;5.688;2023-05-06T18:33:54;23.40;92.60
14771;DHT22;7477;45.222;5.688;2023-05-06T18:37:14;23.40;92.30
14771;DHT22;7477;45.222;5.688;2023-05-06T18:40:33;23.40;92.90
14771;DHT22;7477;45.222;5.688;2023-05-06T18:43:53;23.40;93.20
14771;DHT22;7477;45.222;5.688;2023-05-06T18:47:12;23.40;92.80
14771;DHT22;7477;45.222;5.688;2023-05-06T18:50:34;23.30;93.50
14771;DHT22;7477;45.222;5.688;2023-05-06T18:53:53;23.30;93.10
14771;DHT22;7477;45.222;5.688;2023-05-06T18:57:12;23.30;93.40
14771;DHT22;7477;45.222;5.688;2023-05-06T19:00:32;23.30;93.20
14771;DHT22;7477;45.222;5.688;2023-05-06T19:03:51;23.30;93.40
14771;DHT22;7477;45.222;5.688;2023-05-06T19:07:10;23.30;93.30
14771;DHT22;7477;45.222;5.688;2023-05-06T19:10:32;23.30;93.50
14771;DHT22;7477;45.222;5.688;2023-05-06T19:13:52;23.20;93.50
14771;DHT22;7477;45.222;5.688;2023-05-06T19:17:11;23.20;93.40
14771;DHT22;7477;45.222;5.688;2023-05-06T19:20:30;23.20;93.30
14771;DHT22;7477;45.222;5.688;2023-05-06T19:23:49;23.20;93.20
14771;DHT22;7477;45.222;5.688;2023-05-06T19:27:08;23.20;93.40
14771;DHT22;7477;45.222;5.688;2023-05-06T19:30:33;23.10;93.70
14771;DHT22;7477;45.222;5.688;2023-05-06T19:33:52;23.10;93.50
14771;DHT22;7477;45.222;5.688;2023-05-06T19:37:11;23.10;93.90
14771;DHT22;7477;45.222;5.688;2023-05-06T19:40:30;23.00;93.50
14771;DHT22;7477;45.222;5.688;2023-05-06T19:43:49;23.00;93.50
14771;DHT22;7477;45.222;5.688;2023-05-06T19:47:09;23.00;93.30
14771;DHT22;7477;45.222;5.688;2023-05-06T19:50:30;23.00;93.60
14771;DHT22;7477;45.222;5.688;2023-05-06T19:53:50;23.00;94.30
14771;DHT22;7477;45.222;5.688;2023-05-06T19:57:09;23.00;93.60
14771;DHT22;7477;45.222;5.688;2023-05-06T20:00:28;23.00;93.30
14771;DHT22;7477;45.222;5.688;2023-05-06T20:03:48;22.90;93.20
14771;DHT22;7477;45.222;5.688;2023-05-06T20:07:08;22.90;93.10
14771;DHT22;7477;45.222;5.688;2023-05-06T20:10:29;22.90;93.20
14771;DHT22;7477;45.222;5.688;2023-05-06T20:13:48;22.80;93.20
14771;DHT22;7477;45.222;5.688;2023-05-06T20:17:07;22.70;93.80
14771;DHT22;7477;45.222;5.688;2023-05-06T20:20:26;22.70;93.30
14771;DHT22;7477;45.222;5.688;2023-05-06T20:23:52;22.60;93.30
14771;DHT22;7477;45.222;5.688;2023-05-06T20:27:11;22.50;93.40
14771;DHT22;7477;45.222;5.688;2023-05-06T20:30:30;22.20;93.50
14771;DHT22;7477;45.222;5.688;2023-05-06T20:33:49;21.90;93.60
14771;DHT22;7477;45.222;5.688;2023-05-06T20:37:08;21.90;93.40
14771;DHT22;7477;45.222;5.688;2023-05-06T20:40:28;21.90;93.20
14771;DHT22;7477;45.222;5.688;2023-05-06T20:43:47;21.90;92.50
14771;DHT22;7477;45.222;5.688;2023-05-06T20:47:10;21.90;92.20
14771;DHT22;7477;45.222;5.688;2023-05-06T20:50:30;22.00;92.20
14771;DHT22;7477;45.222;5.688;2023-05-06T20:53:49;21.70;91.90
14771;DHT22;7477;45.222;5.688;2023-05-06T20:57:12;21.60;92.00
14771;DHT22;7477;45.222;5.688;2023-05-06T21:00:31;21.70;92.00
14771;DHT22;7477;45.222;5.688;2023-05-06T21:03:51;21.60;91.80
14771;DHT22;7477;45.222;5.688;2023-05-06T21:07:10;21.60;91.70
14771;DHT22;7477;45.222;5.688;2023-05-06T21:10:29;21.60;91.50
14771;DHT22;7477;45.222;5.688;2023-05-06T21:13:48;21.40;91.60
14771;DHT22;7477;45.222;5.688;2023-05-06T21:17:07;21.40;91.90
14771;DHT22;7477;45.222;5.688;2023-05-06T21:20:27;21.40;92.10
14771;DHT22;7477;45.222;5.688;2023-05-06T21:23:46;21.50;92.20
14771;DHT22;7477;45.222;5.688;2023-05-06T21:27:06;21.50;92.50
14771;DHT22;7477;45.222;5.688;2023-05-06T21:30:25;21.40;92.60
14771;DHT22;7477;45.222;5.688;2023-05-06T21:33:52;21.30;93.00
14771;DHT22;7477;45.222;5.688;2023-05-06T21:37:12;21.30;93.00